createdAt,value
2019-02-02T00:01:20.061Z,990.51
2019-02-02T00:02:19.978Z,990.54
2019-02-02T00:04:12.759Z,990.55
2019-02-02T00:05:12.673Z,990.49
2019-02-02T00:07:05.681Z,990.43
2019-02-02T00:08:05.404Z,990.38
2019-02-02T00:09:58.171Z,990.38
2019-02-02T00:10:58.089Z,990.38
2019-02-02T00:12:50.934Z,990.36
2019-02-02T00:13:50.856Z,990.32
2019-02-02T00:15:43.611Z,990.30
2019-02-02T00:16:43.535Z,990.27
2019-02-02T00:18:36.382Z,990.24
2019-02-02T00:19:36.291Z,990.25
2019-02-02T00:21:29.185Z,990.18
2019-02-02T00:22:29.004Z,990.21
2019-02-02T00:24:21.788Z,990.18
2019-02-02T00:25:21.771Z,990.14
2019-02-02T00:27:14.438Z,990.09
2019-02-02T00:28:14.360Z,990.09
2019-02-02T00:30:07.133Z,990.05
2019-02-02T00:31:07.062Z,990.01
2019-02-02T00:32:59.846Z,989.99
2019-02-02T00:33:59.763Z,989.87
2019-02-02T00:35:52.500Z,990.01
2019-02-02T00:36:52.427Z,990.01
2019-02-02T00:38:45.182Z,990.01
2019-02-02T00:39:45.128Z,990.01
2019-02-02T00:41:37.851Z,989.96
2019-02-02T00:42:37.780Z,989.96
2019-02-02T00:44:30.565Z,989.88
2019-02-02T00:45:30.470Z,989.92
2019-02-02T00:47:23.312Z,989.79
2019-02-02T00:48:23.151Z,989.84
2019-02-02T00:50:15.986Z,989.79
2019-02-02T00:51:15.850Z,989.81
2019-02-02T00:53:08.643Z,989.85
2019-02-02T00:54:08.515Z,989.87
2019-02-02T00:56:01.335Z,989.97
2019-02-02T00:57:01.266Z,990.05
2019-02-02T00:58:54.273Z,990.14
2019-02-02T00:59:54.186Z,990.17
2019-02-02T01:01:46.953Z,990.21
2019-02-02T01:02:46.888Z,990.25
2019-02-02T01:04:39.651Z,990.26
2019-02-02T01:05:39.571Z,990.30
2019-02-02T01:07:32.397Z,990.29
2019-02-02T01:08:32.418Z,990.32
2019-02-02T01:10:25.250Z,990.37
2019-02-02T01:11:25.013Z,990.39
2019-02-02T01:13:17.864Z,990.43
2019-02-02T01:14:17.727Z,990.43
2019-02-02T01:16:10.746Z,990.39
2019-02-02T01:17:10.685Z,990.42
2019-02-02T01:19:03.508Z,990.35
2019-02-02T01:20:03.371Z,990.31
2019-02-02T01:21:56.171Z,990.30
2019-02-02T01:22:56.087Z,990.32
2019-02-02T01:24:48.902Z,990.32
2019-02-02T01:25:48.809Z,990.34
2019-02-02T01:27:41.591Z,990.42
2019-02-02T01:28:41.514Z,990.38
2019-02-02T01:30:34.458Z,990.36
2019-02-02T01:31:34.200Z,990.36
2019-02-02T01:33:26.973Z,990.35
2019-02-02T01:34:26.898Z,990.34
2019-02-02T01:36:19.718Z,990.32
2019-02-02T01:37:19.652Z,990.34
2019-02-02T01:39:12.427Z,990.37
2019-02-02T01:40:12.361Z,990.32
2019-02-02T01:42:05.319Z,990.36
2019-02-02T01:43:05.037Z,990.38
2019-02-02T01:44:57.833Z,990.40
2019-02-02T01:45:57.757Z,990.42
2019-02-02T01:47:50.523Z,990.36
2019-02-02T01:48:50.453Z,990.39
2019-02-02T01:50:43.266Z,990.33
2019-02-02T01:51:43.167Z,990.34
2019-02-02T01:53:35.935Z,990.36
2019-02-02T01:54:38.359Z,990.36
2019-02-02T01:57:06.014Z,990.34
2019-02-02T01:58:16.057Z,990.40
2019-02-02T01:59:58.827Z,990.33
2019-02-02T02:00:58.672Z,990.34
2019-02-02T02:02:51.414Z,990.29
2019-02-02T02:03:51.344Z,990.19
2019-02-02T02:05:44.125Z,990.09
2019-02-02T02:06:44.035Z,990.07
2019-02-02T02:08:36.794Z,989.98
2019-02-02T02:09:36.730Z,989.99
2019-02-02T02:11:29.503Z,990.02
2019-02-02T02:12:29.395Z,990.05
2019-02-02T02:14:22.232Z,990.13
2019-02-02T02:15:22.090Z,990.13
2019-02-02T02:17:14.879Z,990.17
2019-02-02T02:18:14.796Z,990.21
2019-02-02T02:20:07.535Z,990.24
2019-02-02T02:21:07.439Z,990.23
2019-02-02T02:23:00.238Z,990.21
2019-02-02T02:24:00.192Z,990.22
2019-02-02T02:25:53.032Z,990.25
2019-02-02T02:26:52.926Z,990.18
2019-02-02T02:28:45.709Z,990.16
2019-02-02T02:29:45.617Z,990.14
2019-02-02T02:31:38.724Z,990.06
2019-02-02T02:32:38.320Z,990.04
2019-02-02T02:34:31.100Z,989.99
2019-02-02T02:35:31.018Z,989.98
2019-02-02T02:37:23.815Z,989.92
2019-02-02T02:38:23.715Z,989.92
2019-02-02T02:40:16.492Z,989.91
2019-02-02T02:41:16.414Z,989.86
2019-02-02T02:43:09.271Z,989.83
2019-02-02T02:44:09.184Z,989.82
2019-02-02T02:46:02.034Z,989.87
2019-02-02T02:47:01.938Z,989.87
2019-02-02T02:48:54.658Z,989.87
2019-02-02T02:49:54.672Z,989.90
2019-02-02T02:51:47.366Z,989.93
2019-02-02T02:52:47.325Z,989.89
2019-02-02T02:54:40.053Z,989.91
2019-02-02T02:55:40.011Z,989.93
2019-02-02T02:57:32.771Z,989.92
2019-02-02T02:58:41.204Z,989.93
2019-02-02T03:00:25.590Z,989.96
2019-02-02T03:01:25.331Z,989.95
2019-02-02T03:03:18.111Z,989.82
2019-02-02T03:04:18.029Z,989.76
2019-02-02T03:06:10.923Z,989.65
2019-02-02T03:07:11.033Z,989.62
2019-02-02T03:09:03.558Z,989.64
2019-02-02T03:10:03.489Z,989.80
2019-02-02T03:11:56.232Z,989.86
2019-02-02T03:12:56.146Z,989.82
2019-02-02T03:14:49.018Z,989.79
2019-02-02T03:15:48.866Z,989.80
2019-02-02T03:17:41.671Z,989.72
2019-02-02T03:18:41.621Z,989.74
2019-02-02T03:20:34.399Z,989.68
2019-02-02T03:21:34.298Z,989.68
2019-02-02T03:23:27.134Z,989.70
2019-02-02T03:24:26.995Z,989.72
2019-02-02T03:26:19.796Z,989.72
2019-02-02T03:27:19.773Z,989.72
2019-02-02T03:29:12.527Z,989.62
2019-02-02T03:30:12.452Z,989.68
2019-02-02T03:32:05.295Z,989.60
2019-02-02T03:33:05.285Z,989.61
2019-02-02T03:34:57.932Z,989.63
2019-02-02T03:35:57.846Z,989.65
2019-02-02T03:37:50.722Z,989.55
2019-02-02T03:38:50.575Z,989.58
2019-02-02T03:40:43.426Z,989.50
2019-02-02T03:41:43.223Z,989.50
2019-02-02T03:43:35.987Z,989.44
2019-02-02T03:44:35.948Z,989.55
2019-02-02T03:46:28.762Z,989.59
2019-02-02T03:47:28.627Z,989.61
2019-02-02T03:49:21.382Z,989.69
2019-02-02T03:50:21.297Z,989.72
2019-02-02T03:52:14.069Z,989.69
2019-02-02T03:53:14.001Z,989.73
2019-02-02T03:55:06.907Z,989.73
2019-02-02T03:56:06.718Z,989.81
2019-02-02T03:57:59.544Z,989.75
2019-02-02T03:59:06.531Z,989.77
2019-02-02T04:00:52.531Z,989.76
2019-02-02T04:01:52.131Z,989.77
2019-02-02T04:03:44.894Z,989.84
2019-02-02T04:04:44.814Z,989.86
2019-02-02T04:06:37.638Z,989.85
2019-02-02T04:07:37.503Z,989.88
2019-02-02T04:09:30.280Z,989.88
2019-02-02T04:10:30.347Z,989.82
2019-02-02T04:12:22.933Z,989.86
2019-02-02T04:13:22.850Z,989.91
2019-02-02T04:15:15.711Z,989.96
2019-02-02T04:16:15.683Z,989.98
2019-02-02T04:18:08.324Z,989.90
2019-02-02T04:19:08.255Z,989.95
2019-02-02T04:21:01.013Z,989.93
2019-02-02T04:22:01.007Z,989.88
2019-02-02T04:23:53.677Z,989.83
2019-02-02T04:24:53.638Z,989.79
2019-02-02T04:26:46.391Z,989.78
2019-02-02T04:27:46.318Z,989.82
2019-02-02T04:29:39.136Z,989.77
2019-02-02T04:30:39.006Z,989.80
2019-02-02T04:32:31.958Z,989.79
2019-02-02T04:33:31.791Z,989.81
2019-02-02T04:35:25.474Z,989.86
2019-02-02T04:36:25.348Z,989.88
2019-02-02T04:38:18.103Z,989.85
2019-02-02T04:39:18.002Z,989.84
2019-02-02T04:41:10.938Z,989.65
2019-02-02T04:42:10.804Z,989.61
2019-02-02T04:44:03.620Z,989.55
2019-02-02T04:45:03.533Z,989.55
2019-02-02T04:46:56.362Z,989.63
2019-02-02T04:47:56.235Z,989.74
2019-02-02T04:49:49.140Z,989.69
2019-02-02T04:50:48.937Z,989.71
2019-02-02T04:52:41.740Z,989.74
2019-02-02T04:53:41.617Z,989.80
2019-02-02T04:55:34.436Z,989.88
2019-02-02T04:56:34.313Z,989.86
2019-02-02T04:58:27.189Z,989.80
2019-02-02T04:59:29.254Z,989.80
2019-02-02T05:01:19.869Z,989.78
2019-02-02T05:02:19.658Z,989.74
2019-02-02T05:04:12.436Z,989.60
2019-02-02T05:05:12.365Z,989.55
2019-02-02T05:07:05.142Z,989.38
2019-02-02T05:08:05.062Z,989.38
2019-02-02T05:09:57.858Z,989.33
2019-02-02T05:10:57.749Z,989.28
2019-02-02T05:12:50.532Z,989.23
2019-02-02T05:13:50.443Z,989.17
2019-02-02T05:15:43.333Z,989.14
2019-02-02T05:16:43.182Z,989.08
2019-02-02T05:18:35.949Z,989.21
2019-02-02T05:19:35.876Z,989.21
2019-02-02T05:21:28.648Z,989.16
2019-02-02T05:22:28.681Z,989.20
2019-02-02T05:24:21.322Z,989.18
2019-02-02T05:25:22.493Z,989.23
2019-02-02T05:27:14.030Z,989.30
2019-02-02T05:28:13.939Z,989.33
2019-02-02T05:30:06.688Z,989.43
2019-02-02T05:31:06.605Z,989.42
2019-02-02T05:33:01.216Z,989.53
2019-02-02T05:34:01.145Z,989.58
2019-02-02T05:35:55.660Z,989.58
2019-02-02T05:36:53.846Z,989.55
2019-02-02T05:38:47.579Z,989.55
2019-02-02T05:39:47.700Z,989.54
2019-02-02T05:41:40.228Z,989.50
2019-02-02T05:42:40.144Z,989.47
2019-02-02T05:44:32.947Z,989.38
2019-02-02T05:45:32.854Z,989.34
2019-02-02T05:47:25.627Z,989.29
2019-02-02T05:48:25.674Z,989.28
2019-02-02T05:50:18.652Z,989.31
2019-02-02T05:51:18.571Z,989.30
2019-02-02T05:53:11.357Z,989.39
2019-02-02T05:54:11.590Z,989.46
2019-02-02T05:56:04.115Z,989.62
2019-02-02T05:57:04.062Z,989.63
2019-02-02T05:58:56.831Z,989.64
2019-02-02T05:59:56.725Z,989.64
2019-02-02T06:01:49.474Z,989.69
2019-02-02T06:02:49.384Z,989.69
2019-02-02T06:04:42.212Z,989.79
2019-02-02T06:05:42.132Z,989.81
2019-02-02T06:07:34.940Z,989.83
2019-02-02T06:08:34.828Z,989.79
2019-02-02T06:10:27.603Z,989.83
2019-02-02T06:11:27.551Z,989.83
2019-02-02T06:13:20.340Z,989.92
2019-02-02T06:14:20.243Z,989.95
2019-02-02T06:16:13.169Z,990.07
2019-02-02T06:17:12.943Z,990.05
2019-02-02T06:19:05.889Z,990.02
2019-02-02T06:20:05.779Z,989.94
2019-02-02T06:21:58.575Z,989.98
2019-02-02T06:22:58.512Z,989.93
2019-02-02T06:24:52.771Z,989.94
2019-02-02T06:25:51.201Z,989.90
2019-02-02T06:27:43.963Z,989.86
2019-02-02T06:28:43.894Z,989.84
2019-02-02T06:30:36.856Z,989.87
2019-02-02T06:31:36.655Z,989.94
2019-02-02T06:33:29.414Z,990.00
2019-02-02T06:34:29.323Z,990.03
2019-02-02T06:36:22.073Z,990.05
2019-02-02T06:37:21.998Z,990.06
2019-02-02T06:39:14.919Z,990.04
2019-02-02T06:40:14.684Z,990.06
2019-02-02T06:42:07.486Z,990.04
2019-02-02T06:43:07.384Z,990.03
2019-02-02T06:45:00.219Z,990.09
2019-02-02T06:46:00.140Z,990.08
2019-02-02T06:47:53.220Z,990.12
2019-02-02T06:48:52.915Z,990.14
2019-02-02T06:50:45.831Z,990.15
2019-02-02T06:51:45.593Z,990.16
2019-02-02T06:53:38.468Z,990.15
2019-02-02T06:54:38.345Z,990.15
2019-02-02T06:56:31.167Z,990.10
2019-02-02T06:57:31.099Z,990.05
2019-02-02T06:59:24.054Z,990.07
2019-02-02T07:00:26.391Z,990.04
2019-02-02T07:02:16.846Z,990.01
2019-02-02T07:03:16.877Z,989.96
2019-02-02T07:05:09.488Z,989.86
2019-02-02T07:06:09.442Z,989.79
2019-02-02T07:08:02.284Z,989.75
2019-02-02T07:09:02.232Z,989.75
2019-02-02T07:10:54.987Z,989.77
2019-02-02T07:11:54.912Z,989.77
2019-02-02T07:13:47.687Z,989.76
2019-02-02T07:14:47.638Z,989.75
2019-02-02T07:16:40.464Z,989.78
2019-02-02T07:17:40.262Z,989.82
2019-02-02T07:19:33.208Z,989.85
2019-02-02T07:20:33.123Z,989.82
2019-02-02T07:22:25.935Z,989.94
2019-02-02T07:23:25.842Z,990.02
2019-02-02T07:25:18.620Z,990.00
2019-02-02T07:26:18.535Z,990.05
2019-02-02T07:28:11.450Z,990.11
2019-02-02T07:29:11.324Z,990.15
2019-02-02T07:31:04.122Z,990.19
2019-02-02T07:32:04.053Z,990.25
2019-02-02T07:33:56.801Z,990.31
2019-02-02T07:34:56.726Z,990.34
2019-02-02T07:36:49.488Z,990.40
2019-02-02T07:37:49.395Z,990.45
2019-02-02T07:39:42.204Z,990.46
2019-02-02T07:40:42.089Z,990.40
2019-02-02T07:42:34.890Z,990.43
2019-02-02T07:43:34.803Z,990.46
2019-02-02T07:45:27.594Z,990.45
2019-02-02T07:46:27.544Z,990.40
2019-02-02T07:48:20.503Z,990.36
2019-02-02T07:49:20.272Z,990.37
2019-02-02T07:51:13.227Z,990.45
2019-02-02T07:52:12.988Z,990.49
2019-02-02T07:54:05.775Z,990.44
2019-02-02T07:55:05.682Z,990.42
2019-02-02T07:56:58.453Z,990.44
2019-02-02T07:57:58.371Z,990.52
2019-02-02T07:59:51.167Z,990.55
2019-02-02T08:00:51.085Z,990.60
2019-02-02T08:02:43.868Z,990.57
2019-02-02T08:03:43.772Z,990.49
2019-02-02T08:05:36.544Z,990.51
2019-02-02T08:06:36.523Z,990.53
2019-02-02T08:08:29.287Z,990.50
2019-02-02T08:09:29.216Z,990.51
2019-02-02T08:11:21.968Z,990.49
2019-02-02T08:12:21.885Z,990.41
2019-02-02T08:14:14.650Z,990.31
2019-02-02T08:15:14.570Z,990.36
2019-02-02T08:17:07.393Z,990.45
2019-02-02T08:18:07.312Z,990.50
2019-02-02T08:20:00.340Z,990.50
2019-02-02T08:21:00.040Z,990.49
2019-02-02T08:22:52.861Z,990.51
2019-02-02T08:23:52.762Z,990.58
2019-02-02T08:25:45.611Z,990.71
2019-02-02T08:26:45.478Z,990.79
2019-02-02T08:28:38.303Z,990.89
2019-02-02T08:29:38.199Z,990.90
2019-02-02T08:31:30.997Z,990.90
2019-02-02T08:32:30.919Z,990.90
2019-02-02T08:34:23.689Z,990.90
2019-02-02T08:35:23.605Z,990.87
2019-02-02T08:37:16.433Z,990.79
2019-02-02T08:38:16.333Z,990.80
2019-02-02T08:40:09.123Z,990.72
2019-02-02T08:41:08.997Z,990.72
2019-02-02T08:43:01.805Z,990.75
2019-02-02T08:44:01.686Z,990.78
2019-02-02T08:45:54.535Z,990.87
2019-02-02T08:46:54.535Z,990.90
2019-02-02T08:48:47.262Z,990.90
2019-02-02T08:49:47.175Z,990.89
2019-02-02T08:51:39.930Z,990.87
2019-02-02T08:52:39.877Z,990.85
2019-02-02T08:54:32.655Z,990.91
2019-02-02T08:55:32.602Z,990.90
2019-02-02T08:57:25.325Z,990.80
2019-02-02T08:58:25.311Z,990.78
2019-02-02T09:00:18.064Z,990.84
2019-02-02T09:01:17.966Z,990.90
2019-02-02T09:03:10.765Z,991.04
2019-02-02T09:04:10.696Z,991.06
2019-02-02T09:06:03.469Z,990.97
2019-02-02T09:07:03.354Z,990.96
2019-02-02T09:08:56.201Z,990.91
2019-02-02T09:09:56.129Z,990.91
2019-02-02T09:11:48.983Z,990.95
2019-02-02T09:12:48.751Z,991.05
2019-02-02T09:14:41.540Z,991.15
2019-02-02T09:15:41.449Z,991.21
2019-02-02T09:17:34.190Z,991.20
2019-02-02T09:18:34.176Z,991.25
2019-02-02T09:20:26.985Z,991.20
2019-02-02T09:21:26.871Z,991.20
2019-02-02T09:23:19.819Z,991.16
2019-02-02T09:24:19.747Z,991.22
2019-02-02T09:26:12.534Z,991.29
2019-02-02T09:27:12.466Z,991.32
2019-02-02T09:29:05.237Z,991.24
2019-02-02T09:30:05.200Z,991.25
2019-02-02T09:31:57.960Z,991.28
2019-02-02T09:32:57.864Z,991.31
2019-02-02T09:34:50.648Z,991.33
2019-02-02T09:35:50.631Z,991.39
2019-02-02T09:37:43.564Z,991.27
2019-02-02T09:38:43.576Z,991.23
2019-02-02T09:40:36.280Z,991.21
2019-02-02T09:41:36.219Z,991.23
2019-02-02T09:43:28.994Z,991.29
2019-02-02T09:44:28.912Z,991.31
2019-02-02T09:46:21.698Z,991.27
2019-02-02T09:47:21.628Z,991.26
2019-02-02T09:49:14.567Z,991.24
2019-02-02T09:50:14.315Z,991.18
2019-02-02T09:52:07.124Z,991.24
2019-02-02T09:53:07.032Z,991.25
2019-02-02T09:54:59.921Z,991.25
2019-02-02T09:55:59.733Z,991.24
2019-02-02T09:57:55.146Z,991.23
2019-02-02T09:58:52.410Z,991.28
2019-02-02T10:00:45.205Z,991.37
2019-02-02T10:01:45.129Z,991.35
2019-02-02T10:03:37.858Z,991.27
2019-02-02T10:04:37.880Z,991.27
2019-02-02T10:06:30.534Z,991.26
2019-02-02T10:07:30.459Z,991.37
2019-02-02T10:09:23.228Z,991.31
2019-02-02T10:10:23.226Z,991.32
2019-02-02T10:12:15.951Z,991.29
2019-02-02T10:13:15.822Z,991.34
2019-02-02T10:15:08.611Z,991.32
2019-02-02T10:16:08.525Z,991.32
2019-02-02T10:18:01.275Z,991.32
2019-02-02T10:19:01.218Z,991.26
2019-02-02T10:21:03.554Z,991.26
2019-02-02T10:21:53.896Z,991.22
2019-02-02T10:23:46.699Z,991.25
2019-02-02T10:24:46.607Z,991.27
2019-02-02T10:26:39.361Z,991.34
2019-02-02T10:27:39.289Z,991.35
2019-02-02T10:29:32.040Z,991.34
2019-02-02T10:30:31.969Z,991.36
2019-02-02T10:32:24.778Z,991.34
2019-02-02T10:33:24.699Z,991.39
2019-02-02T10:35:17.733Z,991.34
2019-02-02T10:36:20.063Z,991.35
2019-02-02T10:38:10.484Z,991.32
2019-02-02T10:39:10.215Z,991.36
2019-02-02T10:41:02.972Z,991.19
2019-02-02T10:42:02.874Z,991.18
2019-02-02T10:43:55.656Z,991.14
2019-02-02T10:44:55.594Z,991.18
2019-02-02T10:46:48.365Z,991.21
2019-02-02T10:47:48.301Z,991.25
2019-02-02T10:49:41.178Z,991.28
2019-02-02T10:50:41.113Z,991.25
2019-02-02T10:52:33.888Z,991.26
2019-02-02T10:53:33.886Z,991.22
2019-02-02T10:55:26.594Z,991.26
2019-02-02T10:56:26.485Z,991.25
2019-02-02T10:58:19.242Z,991.33
2019-02-02T10:59:19.165Z,991.36
2019-02-02T11:01:12.014Z,991.38
2019-02-02T11:02:11.912Z,991.39
2019-02-02T11:04:04.678Z,991.39
2019-02-02T11:05:04.558Z,991.45
2019-02-02T11:06:57.339Z,991.41
2019-02-02T11:07:57.320Z,991.39
2019-02-02T11:09:50.054Z,991.40
2019-02-02T11:10:50.080Z,991.38
2019-02-02T11:12:42.727Z,991.33
2019-02-02T11:13:42.683Z,991.35
2019-02-02T11:15:35.491Z,991.42
2019-02-02T11:16:35.429Z,991.41
2019-02-02T11:18:28.130Z,991.44
2019-02-02T11:19:28.045Z,991.42
2019-02-02T11:21:20.889Z,991.45
2019-02-02T11:22:20.875Z,991.41
2019-02-02T11:24:13.725Z,991.36
2019-02-02T11:25:13.538Z,991.37
2019-02-02T11:27:06.208Z,991.28
2019-02-02T11:28:06.181Z,991.32
2019-02-02T11:29:58.855Z,991.27
2019-02-02T11:30:58.798Z,991.31
2019-02-02T11:32:51.532Z,991.29
2019-02-02T11:33:51.471Z,991.25
2019-02-02T11:35:44.276Z,991.27
2019-02-02T11:36:44.278Z,991.33
2019-02-02T11:38:36.984Z,991.34
2019-02-02T11:39:36.903Z,991.33
2019-02-02T11:41:29.666Z,991.25
2019-02-02T11:42:29.595Z,991.22
2019-02-02T11:44:22.373Z,991.22
2019-02-02T11:45:22.285Z,991.25
2019-02-02T11:47:15.051Z,991.20
2019-02-02T11:48:15.247Z,991.18
2019-02-02T11:50:07.753Z,991.17
2019-02-02T11:51:07.676Z,991.13
2019-02-02T11:53:00.457Z,991.10
2019-02-02T11:54:00.382Z,991.08
2019-02-02T11:55:53.726Z,991.12
2019-02-02T11:56:53.602Z,991.18
2019-02-02T11:58:46.372Z,991.22
2019-02-02T11:59:46.556Z,991.27
2019-02-02T12:01:39.189Z,991.28
2019-02-02T12:02:49.176Z,991.30
2019-02-02T12:04:31.812Z,991.35
2019-02-02T12:05:32.115Z,991.36
2019-02-02T12:07:24.534Z,991.34
2019-02-02T12:08:24.445Z,991.41
2019-02-02T12:10:17.746Z,991.47
2019-02-02T12:11:17.630Z,991.54
2019-02-02T12:13:10.672Z,991.71
2019-02-02T12:14:10.460Z,991.79
2019-02-02T12:16:03.231Z,991.74
2019-02-02T12:17:03.154Z,991.73
2019-02-02T12:18:55.944Z,991.62
2019-02-02T12:19:55.862Z,991.62
2019-02-02T12:21:48.635Z,991.66
2019-02-02T12:22:48.579Z,991.70
2019-02-02T12:24:41.317Z,991.66
2019-02-02T12:25:41.227Z,991.66
2019-02-02T12:27:34.025Z,991.61
2019-02-02T12:28:33.943Z,991.58
2019-02-02T12:30:26.777Z,991.56
2019-02-02T12:31:26.638Z,991.58
2019-02-02T12:33:19.380Z,991.58
2019-02-02T12:34:19.310Z,991.57
2019-02-02T12:36:12.199Z,991.60
2019-02-02T12:37:12.120Z,991.56
2019-02-02T12:39:04.866Z,991.49
2019-02-02T12:40:04.775Z,991.52
2019-02-02T12:41:57.558Z,991.47
2019-02-02T12:42:57.466Z,991.46
2019-02-02T12:44:50.253Z,991.40
2019-02-02T12:45:50.182Z,991.42
2019-02-02T12:47:43.046Z,991.44
2019-02-02T12:48:42.937Z,991.42
2019-02-02T12:50:35.963Z,991.41
2019-02-02T12:51:35.922Z,991.36
2019-02-02T12:53:28.773Z,991.35
2019-02-02T12:54:28.622Z,991.36
2019-02-02T12:56:21.354Z,991.41
2019-02-02T12:57:21.260Z,991.45
2019-02-02T12:59:14.038Z,991.46
2019-02-02T13:00:14.023Z,991.49
2019-02-02T13:02:06.762Z,991.56
2019-02-02T13:03:06.651Z,991.59
2019-02-02T13:04:59.540Z,991.61
2019-02-02T13:05:59.442Z,991.61
2019-02-02T13:07:52.210Z,991.63
2019-02-02T13:08:52.131Z,991.71
2019-02-02T13:10:44.897Z,991.76
2019-02-02T13:11:44.853Z,991.78
2019-02-02T13:13:37.748Z,991.80
2019-02-02T13:14:37.643Z,991.84
2019-02-02T13:16:30.418Z,991.88
2019-02-02T13:17:30.327Z,991.87
2019-02-02T13:19:23.191Z,991.98
2019-02-02T13:20:23.041Z,991.99
2019-02-02T13:22:15.997Z,992.08
2019-02-02T13:23:15.844Z,992.15
2019-02-02T13:25:08.625Z,992.23
2019-02-02T13:26:08.530Z,992.23
2019-02-02T13:28:01.452Z,992.31
2019-02-02T13:29:01.385Z,992.32
2019-02-02T13:30:54.128Z,992.35
2019-02-02T13:31:54.074Z,992.34
2019-02-02T13:34:12.351Z,992.37
2019-02-02T13:35:12.273Z,992.32
2019-02-02T13:37:05.466Z,992.33
2019-02-02T13:38:04.987Z,992.33
2019-02-02T13:39:57.949Z,992.41
2019-02-02T13:40:57.883Z,992.40
2019-02-02T13:42:50.820Z,992.44
2019-02-02T13:43:50.538Z,992.36
2019-02-02T13:45:44.186Z,992.41
2019-02-02T13:46:44.138Z,992.46
2019-02-02T13:48:36.958Z,992.47
2019-02-02T13:49:36.786Z,992.46
2019-02-02T13:51:30.077Z,992.48
2019-02-02T13:52:29.515Z,992.43
2019-02-02T13:54:22.320Z,992.42
2019-02-02T13:55:22.221Z,992.40
2019-02-02T13:57:15.525Z,992.41
2019-02-02T13:58:14.931Z,992.42
2019-02-02T14:00:07.829Z,992.42
2019-02-02T14:01:07.778Z,992.46
2019-02-02T14:03:03.198Z,992.47
2019-02-02T14:04:01.255Z,992.47
2019-02-02T14:05:54.082Z,992.45
2019-02-02T14:06:54.105Z,992.47
2019-02-02T14:08:47.479Z,992.45
2019-02-02T14:09:46.919Z,992.47
2019-02-02T14:11:39.688Z,992.42
2019-02-02T14:12:39.584Z,992.43
2019-02-02T14:14:32.359Z,992.45
2019-02-02T14:15:32.277Z,992.50
2019-02-02T14:17:25.510Z,992.54
2019-02-02T14:18:25.425Z,992.57
2019-02-02T14:20:18.198Z,992.59
2019-02-02T14:21:18.124Z,992.59
2019-02-02T14:23:10.883Z,992.60
2019-02-02T14:24:10.803Z,992.59
2019-02-02T14:26:03.572Z,992.59
2019-02-02T14:27:03.479Z,992.61
2019-02-02T14:28:56.232Z,992.72
2019-02-02T14:29:56.169Z,992.78
2019-02-02T14:31:49.004Z,992.77
2019-02-02T14:32:48.953Z,992.75
2019-02-02T14:34:41.669Z,992.80
2019-02-02T14:35:41.575Z,992.83
2019-02-02T14:37:34.317Z,992.84
2019-02-02T14:38:34.236Z,992.87
2019-02-02T14:40:27.028Z,992.89
2019-02-02T14:41:26.935Z,992.86
2019-02-02T14:43:19.825Z,992.85
2019-02-02T14:44:19.634Z,992.90
2019-02-02T14:46:12.443Z,992.84
2019-02-02T14:47:12.321Z,992.81
2019-02-02T14:49:05.152Z,992.80
2019-02-02T14:50:05.056Z,992.82
2019-02-02T14:51:57.826Z,992.89
2019-02-02T14:52:57.735Z,992.91
2019-02-02T14:54:50.573Z,993.00
2019-02-02T14:55:50.450Z,993.01
2019-02-02T14:57:43.231Z,993.05
2019-02-02T14:58:43.187Z,993.09
2019-02-02T15:00:36.219Z,993.08
2019-02-02T15:01:36.162Z,993.16
2019-02-02T15:03:29.052Z,993.20
2019-02-02T15:04:29.343Z,993.22
2019-02-02T15:06:21.941Z,993.27
2019-02-02T15:07:21.677Z,993.26
2019-02-02T15:09:14.528Z,993.31
2019-02-02T15:10:14.397Z,993.30
2019-02-02T15:12:07.161Z,993.33
2019-02-02T15:13:07.096Z,993.32
2019-02-02T15:14:59.879Z,993.33
2019-02-02T15:15:59.807Z,993.32
2019-02-02T15:17:52.610Z,993.34
2019-02-02T15:18:53.018Z,993.34
2019-02-02T15:20:45.489Z,993.32
2019-02-02T15:21:45.570Z,993.33
2019-02-02T15:23:38.155Z,993.34
2019-02-02T15:24:38.075Z,993.34
2019-02-02T15:26:31.063Z,993.39
2019-02-02T15:27:30.834Z,993.35
2019-02-02T15:29:23.748Z,993.44
2019-02-02T15:30:23.520Z,993.46
2019-02-02T15:32:16.343Z,993.46
2019-02-02T15:33:16.258Z,993.44
2019-02-02T15:35:09.023Z,993.47
2019-02-02T15:36:08.958Z,993.50
2019-02-02T15:38:01.783Z,993.47
2019-02-02T15:39:01.618Z,993.45
2019-02-02T15:40:59.286Z,993.46
2019-02-02T15:41:54.319Z,993.50
2019-02-02T15:43:47.130Z,993.50
2019-02-02T15:44:47.034Z,993.52
2019-02-02T15:46:48.721Z,993.51
2019-02-02T15:47:39.795Z,993.51
2019-02-02T15:49:32.643Z,993.52
2019-02-02T15:50:32.541Z,993.55
2019-02-02T15:52:25.411Z,993.55
2019-02-02T15:53:25.265Z,993.61
2019-02-02T15:55:18.061Z,993.63
2019-02-02T15:56:17.960Z,993.63
2019-02-02T15:58:10.774Z,993.59
2019-02-02T15:59:10.695Z,993.57
2019-02-02T16:01:03.566Z,993.60
2019-02-02T16:02:03.432Z,993.60
2019-02-02T16:03:56.235Z,993.61
2019-02-02T16:04:56.144Z,993.62
2019-02-02T16:06:49.012Z,993.64
2019-02-02T16:07:49.070Z,993.65
2019-02-02T16:09:41.738Z,993.72
2019-02-02T16:10:41.658Z,993.72
2019-02-02T16:12:34.466Z,993.77
2019-02-02T16:13:34.351Z,993.78
2019-02-02T16:15:27.215Z,993.87
2019-02-02T16:16:27.184Z,993.86
2019-02-02T16:18:19.932Z,993.91
2019-02-02T16:19:19.828Z,993.98
2019-02-02T16:21:12.600Z,994.03
2019-02-02T16:22:12.530Z,994.03
2019-02-02T16:24:05.410Z,994.06
2019-02-02T16:25:05.202Z,994.11
2019-02-02T16:26:58.075Z,994.11
2019-02-02T16:27:57.897Z,994.13
2019-02-02T16:29:50.661Z,994.17
2019-02-02T16:30:50.589Z,994.22
2019-02-02T16:32:43.395Z,994.24
2019-02-02T16:33:43.265Z,994.29
2019-02-02T16:35:36.095Z,994.34
2019-02-02T16:36:35.985Z,994.36
2019-02-02T16:38:28.883Z,994.41
2019-02-02T16:39:28.763Z,994.42
2019-02-02T16:41:21.668Z,994.41
2019-02-02T16:42:21.419Z,994.44
2019-02-02T16:44:14.156Z,994.48
2019-02-02T16:45:14.086Z,994.50
2019-02-02T16:47:06.959Z,994.57
2019-02-02T16:48:06.807Z,994.56
2019-02-02T16:49:59.552Z,994.56
2019-02-02T16:50:59.519Z,994.62
2019-02-02T16:52:52.353Z,994.60
2019-02-02T16:53:52.179Z,994.68
2019-02-02T16:55:44.997Z,994.71
2019-02-02T16:56:44.922Z,994.76
2019-02-02T16:58:37.796Z,994.72
2019-02-02T16:59:37.603Z,994.75
2019-02-02T17:01:30.399Z,994.79
2019-02-02T17:02:30.327Z,994.80
2019-02-02T17:04:23.062Z,994.82
2019-02-02T17:05:22.978Z,994.84
2019-02-02T17:07:15.766Z,994.91
2019-02-02T17:08:15.682Z,994.88
2019-02-02T17:10:08.574Z,994.90
2019-02-02T17:11:08.504Z,994.89
2019-02-02T17:13:01.326Z,994.88
2019-02-02T17:14:01.231Z,994.90
2019-02-02T17:15:53.996Z,994.95
2019-02-02T17:16:53.915Z,995.01
2019-02-02T17:18:46.745Z,995.03
2019-02-02T17:19:46.609Z,995.09
2019-02-02T17:21:52.160Z,995.16
2019-02-02T17:22:52.065Z,995.19
2019-02-02T17:24:44.847Z,995.24
2019-02-02T17:25:44.756Z,995.25
2019-02-02T17:27:37.546Z,995.28
2019-02-02T17:28:37.441Z,995.31
2019-02-02T17:30:30.239Z,995.37
2019-02-02T17:31:30.170Z,995.35
2019-02-02T17:33:22.933Z,995.38
2019-02-02T17:34:27.260Z,995.36
2019-02-02T17:36:15.665Z,995.49
2019-02-02T17:37:16.079Z,995.50
2019-02-02T17:39:08.411Z,995.45
2019-02-02T17:40:08.266Z,995.48
2019-02-02T17:42:03.808Z,995.56
2019-02-02T17:43:00.954Z,995.57
2019-02-02T17:44:53.713Z,995.60
2019-02-02T17:45:53.672Z,995.64
2019-02-02T17:47:46.456Z,995.59
2019-02-02T17:48:46.343Z,995.59
2019-02-02T17:50:39.096Z,995.50
2019-02-02T17:51:39.025Z,995.51
2019-02-02T17:53:31.785Z,995.53
2019-02-02T17:54:31.751Z,995.60
2019-02-02T17:56:24.524Z,995.64
2019-02-02T17:57:24.438Z,995.62
2019-02-02T17:59:17.258Z,995.54